Time;durP1;ratioP1;P1;durP2;ratioP2;P2;SDS_P1;SDS_P2;PMS_P1;PMS_P2;Temp;Humidity;BMP_temperature;BMP_pressure;BME280_temperature;BME280_humidity;BME280_pressure;Samples;Min_cycle;Max_cycle;Signal;HPM_P1;HPM_P2
2024/01/20 00:00:40;;;;;;;20.10;7.35;;;;;;;;;;5086377;28;20488;-55
2024/01/20 00:03:06;;;;;;;15.30;6.28;;;;;;;;;;5089292;28;20401;-57
2024/01/20 00:05:32;;;;;;;19.95;7.18;;;;;;;;;;5090457;28;20453;-57
2024/01/20 00:07:58;;;;;;;16.85;6.65;;;;;;;;;;5090995;28;20382;-56
2024/01/20 00:10:24;;;;;;;17.95;6.68;;;;;;;;;;5087121;28;20412;-57
2024/01/20 00:12:49;;;;;;;17.55;6.80;;;;;;;;;;5089411;28;20394;-56
2024/01/20 00:15:15;;;;;;;14.80;6.47;;;;;;;;;;5088873;28;20444;-57
2024/01/20 00:17:42;;;;;;;18.52;7.22;;;;;;;;;;5079379;28;20392;-56
2024/01/20 00:20:08;;;;;;;16.73;6.65;;;;;;;;;;5080995;28;20733;-56
2024/01/20 00:22:34;;;;;;;16.42;7.38;;;;;;;;;;5087659;28;20399;-57
2024/01/20 00:25:02;;;;;;;17.23;6.88;;;;;;;;;;5090919;28;20386;-57
2024/01/20 00:27:28;;;;;;;15.18;6.65;;;;;;;;;;5090678;28;20886;-57
2024/01/20 00:29:54;;;;;;;19.35;6.90;;;;;;;;;;5085179;28;20407;-56
2024/01/20 00:32:20;;;;;;;20.02;7.22;;;;;;;;;;5078504;28;20407;-56
2024/01/20 00:34:46;;;;;;;18.05;7.28;;;;;;;;;;5085494;28;20380;-57
2024/01/20 00:37:12;;;;;;;15.60;6.28;;;;;;;;;;5088494;28;20382;-57
2024/01/20 00:39:38;;;;;;;13.82;6.63;;;;;;;;;;5083539;28;20467;-57
2024/01/20 00:42:05;;;;;;;15.75;7.30;;;;;;;;;;5065668;28;20406;-57
2024/01/20 00:44:30;;;;;;;18.60;7.43;;;;;;;;;;5087939;28;20378;-57
2024/01/20 00:46:57;;;;;;;13.43;6.87;;;;;;;;;;5079755;28;20416;-57
2024/01/20 00:49:23;;;;;;;17.80;7.07;;;;;;;;;;5089755;28;20926;-57
2024/01/20 00:51:49;;;;;;;18.65;7.05;;;;;;;;;;5090547;28;20385;-54
2024/01/20 00:54:15;;;;;;;16.38;6.85;;;;;;;;;;5089543;28;20533;-55
2024/01/20 00:56:40;;;;;;;19.48;7.32;;;;;;;;;;5088864;28;20496;-56
2024/01/20 00:59:06;;;;;;;15.13;7.43;;;;;;;;;;5089457;28;20382;-58
2024/01/20 01:01:32;;;;;;;20.23;7.32;;;;;;;;;;5081541;28;20405;-58
2024/01/20 01:03:59;;;;;;;17.27;7.35;;;;;;;;;;5088562;28;20406;-56
2024/01/20 01:06:24;;;;;;;17.52;8.00;;;;;;;;;;5089437;28;20484;-57
2024/01/20 01:08:50;;;;;;;16.52;7.50;;;;;;;;;;5087694;28;20398;-57
2024/01/20 01:11:16;;;;;;;18.58;7.95;;;;;;;;;;5090311;28;20395;-57
2024/01/20 01:13:42;;;;;;;16.20;7.55;;;;;;;;;;5088605;28;20493;-57
2024/01/20 01:16:08;;;;;;;19.33;7.78;;;;;;;;;;5089287;28;20398;-57
2024/01/20 01:18:34;;;;;;;15.38;7.20;;;;;;;;;;5089515;28;20895;-58
2024/01/20 01:21:00;;;;;;;18.17;7.75;;;;;;;;;;5090079;28;20385;-57
2024/01/20 01:23:26;;;;;;;17.38;8.45;;;;;;;;;;5089899;28;20919;-56
2024/01/20 01:25:53;;;;;;;16.80;7.80;;;;;;;;;;5088740;28;21316;-56
2024/01/20 01:28:19;;;;;;;17.60;8.13;;;;;;;;;;5065386;28;20390;-54
2024/01/20 01:30:47;;;;;;;18.67;8.30;;;;;;;;;;5090354;28;20897;-56
2024/01/20 01:33:13;;;;;;;19.93;8.63;;;;;;;;;;5077814;28;20442;-57
2024/01/20 01:35:39;;;;;;;17.83;8.17;;;;;;;;;;5079082;28;20374;-57
2024/01/20 01:38:05;;;;;;;17.53;8.10;;;;;;;;;;5082631;28;20401;-58
2024/01/20 01:40:31;;;;;;;16.40;8.57;;;;;;;;;;5079871;28;20466;-58
2024/01/20 01:42:57;;;;;;;16.48;8.45;;;;;;;;;;5089085;28;20405;-57
2024/01/20 01:45:24;;;;;;;20.55;8.60;;;;;;;;;;5088042;28;20371;-57
2024/01/20 01:47:51;;;;;;;18.02;8.55;;;;;;;;;;5085491;28;20402;-57
2024/01/20 01:50:17;;;;;;;17.70;9.25;;;;;;;;;;5081605;28;20433;-55
2024/01/20 01:52:43;;;;;;;19.40;8.70;;;;;;;;;;5072418;28;20392;-57
2024/01/20 01:55:11;;;;;;;18.92;8.27;;;;;;;;;;5083320;28;20380;-57
2024/01/20 01:57:38;;;;;;;22.07;8.60;;;;;;;;;;5079935;28;20403;-58
2024/01/20 02:00:05;;;;;;;19.67;9.05;;;;;;;;;;5083755;28;20957;-57
2024/01/20 02:02:31;;;;;;;21.73;8.95;;;;;;;;;;5079027;28;20782;-52
2024/01/20 02:04:57;;;;;;;19.45;8.60;;;;;;;;;;5069727;28;20388;-51
2024/01/20 02:07:23;;;;;;;19.35;8.95;;;;;;;;;;5092094;28;20875;-54
2024/01/20 02:09:49;;;;;;;17.90;8.75;;;;;;;;;;5092319;28;20967;-55
2024/01/20 02:12:15;;;;;;;21.98;9.10;;;;;;;;;;5092656;28;20405;-56
2024/01/20 02:14:44;;;;;;;18.83;9.18;;;;;;;;;;5092529;28;20466;-52
2024/01/20 02:17:10;;;;;;;20.58;9.55;;;;;;;;;;5085475;28;20402;-55
2024/01/20 02:19:40;;;;;;;20.80;9.73;;;;;;;;;;5082604;28;20407;-56
2024/01/20 02:22:16;;;;;;;20.42;9.60;;;;;;;;;;5088091;28;20383;-54
2024/01/20 02:24:46;;;;;;;19.23;9.65;;;;;;;;;;5092478;28;20477;-55
2024/01/20 02:27:13;;;;;;;20.25;9.55;;;;;;;;;;5091693;28;20406;-54
2024/01/20 02:29:39;;;;;;;22.70;9.23;;;;;;;;;;5084013;28;20421;-55
2024/01/20 02:32:06;;;;;;;20.85;9.80;;;;;;;;;;5088753;28;20409;-51
2024/01/20 02:34:32;;;;;;;19.85;9.77;;;;;;;;;;5091720;28;20414;-53
2024/01/20 02:36:58;;;;;;;21.05;10.40;;;;;;;;;;5091475;28;20394;-50
2024/01/20 02:39:24;;;;;;;18.25;10.02;;;;;;;;;;5078619;28;20747;-53
2024/01/20 02:41:50;;;;;;;21.15;9.20;;;;;;;;;;5090068;28;20374;-53
2024/01/20 02:44:16;;;;;;;21.23;9.75;;;;;;;;;;5084634;28;20400;-55
2024/01/20 02:46:42;;;;;;;20.58;10.45;;;;;;;;;;5091335;28;20398;-54
2024/01/20 02:49:08;;;;;;;18.60;9.40;;;;;;;;;;5088114;28;20409;-54
2024/01/20 02:51:33;;;;;;;20.38;9.50;;;;;;;;;;5090631;28;20394;-56
2024/01/20 02:53:59;;;;;;;19.17;9.55;;;;;;;;;;5075286;28;20434;-55
2024/01/20 02:56:25;;;;;;;21.00;9.82;;;;;;;;;;5080331;28;20415;-56
2024/01/20 02:58:52;;;;;;;22.58;9.77;;;;;;;;;;5087263;28;20913;-53
2024/01/20 03:01:18;;;;;;;19.90;9.60;;;;;;;;;;5091616;28;20393;-54
2024/01/20 03:03:45;;;;;;;18.52;9.27;;;;;;;;;;5091790;28;20775;-55
2024/01/20 03:06:11;;;;;;;19.42;9.88;;;;;;;;;;5092646;28;20533;-53
2024/01/20 03:08:37;;;;;;;20.35;9.90;;;;;;;;;;5087873;28;20909;-53
2024/01/20 03:11:03;;;;;;;18.40;9.73;;;;;;;;;;5091925;28;20375;-54
2024/01/20 03:13:29;;;;;;;18.50;9.23;;;;;;;;;;5088368;28;20896;-53
2024/01/20 03:15:55;;;;;;;22.40;9.52;;;;;;;;;;5085617;28;20411;-55
2024/01/20 03:18:20;;;;;;;19.38;9.70;;;;;;;;;;5083804;28;20435;-56
2024/01/20 03:20:46;;;;;;;17.42;9.10;;;;;;;;;;5073860;28;20434;-55
2024/01/20 03:23:12;;;;;;;19.25;9.43;;;;;;;;;;5086966;28;20389;-55
2024/01/20 03:25:38;;;;;;;22.90;9.98;;;;;;;;;;5083842;28;20397;-53
2024/01/20 03:28:04;;;;;;;17.88;9.20;;;;;;;;;;5090267;28;20384;-55
2024/01/20 03:30:30;;;;;;;22.65;10.02;;;;;;;;;;5082514;28;20820;-55
2024/01/20 03:32:56;;;;;;;18.65;9.13;;;;;;;;;;5080215;28;20411;-56
2024/01/20 03:35:22;;;;;;;22.40;9.57;;;;;;;;;;5081013;28;20451;-54
2024/01/20 03:37:48;;;;;;;17.27;9.70;;;;;;;;;;5080139;28;20374;-56
2024/01/20 03:40:14;;;;;;;19.13;10.48;;;;;;;;;;5077425;28;20378;-53
2024/01/20 03:42:40;;;;;;;20.63;9.38;;;;;;;;;;5091585;28;20401;-56
2024/01/20 03:45:06;;;;;;;19.40;9.48;;;;;;;;;;5091229;28;20462;-55
2024/01/20 03:47:32;;;;;;;20.85;9.77;;;;;;;;;;5078646;28;20983;-56
2024/01/20 03:49:58;;;;;;;21.27;9.98;;;;;;;;;;5089160;28;20409;-56
2024/01/20 03:52:24;;;;;;;20.85;9.63;;;;;;;;;;5090157;28;20395;-55
2024/01/20 03:54:50;;;;;;;18.45;9.70;;;;;;;;;;5081842;28;20379;-55
2024/01/20 03:57:16;;;;;;;20.70;9.90;;;;;;;;;;5074388;28;20376;-55
2024/01/20 03:59:42;;;;;;;18.90;9.65;;;;;;;;;;5081557;28;20383;-55
2024/01/20 04:02:08;;;;;;;19.53;10.00;;;;;;;;;;5071080;28;20383;-55
2024/01/20 04:04:37;;;;;;;17.33;9.57;;;;;;;;;;5089392;28;20393;-56
2024/01/20 04:07:03;;;;;;;21.58;10.10;;;;;;;;;;5089902;28;20889;-55
2024/01/20 04:09:29;;;;;;;19.77;9.75;;;;;;;;;;5083675;28;21020;-56
2024/01/20 04:11:55;;;;;;;20.53;9.67;;;;;;;;;;5091111;28;20370;-56
2024/01/20 04:14:21;;;;;;;21.03;9.60;;;;;;;;;;5084602;28;20813;-51
2024/01/20 04:16:47;;;;;;;21.27;9.83;;;;;;;;;;5091748;28;20844;-56
2024/01/20 04:19:13;;;;;;;22.00;10.07;;;;;;;;;;5079087;28;20395;-53
2024/01/20 04:21:39;;;;;;;21.67;10.33;;;;;;;;;;5081499;28;20410;-54
2024/01/20 04:24:05;;;;;;;19.75;10.27;;;;;;;;;;5086772;28;20399;-55
2024/01/20 04:26:31;;;;;;;20.58;10.10;;;;;;;;;;5061273;28;20395;-54
2024/01/20 04:28:57;;;;;;;21.57;10.43;;;;;;;;;;5089799;28;20406;-55
2024/01/20 04:31:23;;;;;;;20.67;10.70;;;;;;;;;;5089844;28;20439;-55
2024/01/20 04:33:49;;;;;;;17.77;10.00;;;;;;;;;;5089160;28;20427;-54
2024/01/20 04:36:15;;;;;;;20.03;10.33;;;;;;;;;;5087636;28;20386;-56
2024/01/20 04:38:41;;;;;;;18.17;10.13;;;;;;;;;;5088068;28;20887;-55
2024/01/20 04:41:07;;;;;;;28.10;11.05;;;;;;;;;;5086548;28;20397;-56
2024/01/20 04:43:33;;;;;;;21.45;10.45;;;;;;;;;;5087918;28;20394;-56
2024/01/20 04:45:59;;;;;;;19.65;10.30;;;;;;;;;;5090897;28;20813;-56
2024/01/20 04:48:25;;;;;;;22.50;10.90;;;;;;;;;;5089481;28;20394;-54
2024/01/20 04:50:51;;;;;;;18.65;10.15;;;;;;;;;;5087685;28;20430;-54
2024/01/20 04:53:17;;;;;;;20.80;10.07;;;;;;;;;;5079460;28;20870;-55
2024/01/20 04:55:43;;;;;;;21.75;11.02;;;;;;;;;;5079293;28;20481;-54
2024/01/20 04:58:09;;;;;;;19.73;10.48;;;;;;;;;;5085768;28;20894;-56
2024/01/20 05:00:35;;;;;;;22.98;10.68;;;;;;;;;;5080897;28;20437;-53
2024/01/20 05:03:01;;;;;;;21.02;10.75;;;;;;;;;;5079066;28;20444;-56
2024/01/20 05:05:27;;;;;;;19.70;10.77;;;;;;;;;;5088808;28;20935;-55
2024/01/20 05:07:53;;;;;;;22.00;10.60;;;;;;;;;;5086164;28;20489;-56
2024/01/20 05:10:20;;;;;;;23.20;11.07;;;;;;;;;;5085519;28;20418;-55
2024/01/20 05:12:46;;;;;;;21.30;10.55;;;;;;;;;;5087732;28;20386;-55
2024/01/20 05:15:13;;;;;;;19.90;10.93;;;;;;;;;;5088843;28;20459;-56
2024/01/20 05:17:39;;;;;;;24.10;11.20;;;;;;;;;;5088089;28;20392;-55
2024/01/20 05:20:06;;;;;;;22.77;10.77;;;;;;;;;;5085102;28;20437;-55
2024/01/20 05:22:33;;;;;;;22.65;10.82;;;;;;;;;;5089659;28;20498;-53
2024/01/20 05:25:03;;;;;;;22.53;11.30;;;;;;;;;;5088702;28;20388;-54
2024/01/20 05:27:29;;;;;;;23.30;10.80;;;;;;;;;;5089719;28;20383;-54
2024/01/20 05:29:55;;;;;;;22.93;11.07;;;;;;;;;;5088785;28;20414;-55
2024/01/20 05:32:21;;;;;;;17.13;9.97;;;;;;;;;;5070365;28;20389;-54
2024/01/20 05:34:47;;;;;;;18.73;10.30;;;;;;;;;;5085906;28;20390;-55
2024/01/20 05:37:13;;;;;;;22.30;10.53;;;;;;;;;;5088278;28;20413;-53
2024/01/20 05:39:39;;;;;;;23.00;10.77;;;;;;;;;;5079693;28;20404;-56
2024/01/20 05:42:05;;;;;;;24.60;11.30;;;;;;;;;;5093115;28;20744;-56
2024/01/20 05:44:31;;;;;;;22.65;10.48;;;;;;;;;;5092822;28;20384;-55
2024/01/20 05:46:57;;;;;;;19.88;10.48;;;;;;;;;;5081195;28;20379;-55
2024/01/20 05:49:23;;;;;;;21.10;10.55;;;;;;;;;;5092764;28;20413;-55
2024/01/20 05:51:49;;;;;;;20.17;10.57;;;;;;;;;;5089829;28;20377;-54
2024/01/20 05:54:15;;;;;;;20.95;10.50;;;;;;;;;;5089378;28;20404;-56
2024/01/20 05:56:41;;;;;;;22.05;10.73;;;;;;;;;;5088025;28;20393;-55
2024/01/20 05:59:07;;;;;;;21.50;10.30;;;;;;;;;;5094152;28;20402;-55
2024/01/20 06:01:33;;;;;;;22.23;11.07;;;;;;;;;;5091627;28;20869;-54
2024/01/20 06:03:59;;;;;;;18.35;10.18;;;;;;;;;;5091938;28;20413;-56
2024/01/20 06:06:25;;;;;;;22.38;10.13;;;;;;;;;;5088006;28;20530;-54
2024/01/20 06:08:51;;;;;;;22.17;11.80;;;;;;;;;;5088104;28;20413;-54
2024/01/20 06:11:17;;;;;;;26.73;11.07;;;;;;;;;;5099077;28;20373;-52
2024/01/20 06:13:43;;;;;;;19.95;10.38;;;;;;;;;;5093022;28;20390;-54
2024/01/20 06:16:11;;;;;;;20.77;10.80;;;;;;;;;;5082242;28;20735;-55
2024/01/20 06:18:37;;;;;;;20.30;10.43;;;;;;;;;;5085490;28;20479;-55
2024/01/20 06:21:03;;;;;;;24.27;11.93;;;;;;;;;;5089200;28;20404;-56
2024/01/20 06:23:29;;;;;;;25.70;11.95;;;;;;;;;;5092275;28;20971;-55
2024/01/20 06:25:55;;;;;;;22.23;11.53;;;;;;;;;;5092696;28;20470;-55
2024/01/20 06:28:21;;;;;;;20.70;11.60;;;;;;;;;;5091604;28;20746;-55
2024/01/20 06:30:49;;;;;;;25.30;11.45;;;;;;;;;;5084967;28;20404;-55
2024/01/20 06:33:15;;;;;;;21.52;11.05;;;;;;;;;;5088410;28;20437;-53
2024/01/20 06:35:41;;;;;;;22.50;10.52;;;;;;;;;;5092802;28;20370;-52
2024/01/20 06:38:07;;;;;;;30.85;11.82;;;;;;;;;;5089925;28;20500;-51
2024/01/20 06:40:33;;;;;;;21.75;11.15;;;;;;;;;;5092433;28;20379;-51
2024/01/20 06:42:59;;;;;;;23.75;11.27;;;;;;;;;;5089161;28;20397;-52
2024/01/20 06:45:25;;;;;;;22.33;11.52;;;;;;;;;;5092073;28;20393;-51
2024/01/20 06:47:51;;;;;;;21.25;11.38;;;;;;;;;;5089651;28;20404;-52
2024/01/20 06:50:17;;;;;;;22.95;11.35;;;;;;;;;;5091079;28;20771;-52
2024/01/20 06:52:43;;;;;;;21.90;11.23;;;;;;;;;;5090067;28;20461;-51
2024/01/20 06:55:09;;;;;;;24.75;11.77;;;;;;;;;;5088501;28;20393;-50
2024/01/20 06:57:35;;;;;;;24.92;11.27;;;;;;;;;;5088579;28;20751;-52
2024/01/20 07:00:03;;;;;;;23.23;10.95;;;;;;;;;;5092583;28;20381;-51
2024/01/20 07:02:30;;;;;;;20.23;10.98;;;;;;;;;;5091020;28;20471;-53
2024/01/20 07:04:56;;;;;;;25.13;11.57;;;;;;;;;;5083832;28;20788;-54
2024/01/20 07:07:23;;;;;;;20.35;11.13;;;;;;;;;;5091445;28;20427;-52
2024/01/20 07:09:49;;;;;;;24.65;11.07;;;;;;;;;;5086551;28;20398;-53
2024/01/20 07:12:15;;;;;;;24.67;11.40;;;;;;;;;;5072396;28;20550;-53
2024/01/20 07:14:43;;;;;;;23.60;11.73;;;;;;;;;;5087689;28;20415;-54
2024/01/20 07:17:09;;;;;;;21.23;11.80;;;;;;;;;;5085989;28;20390;-53
2024/01/20 07:19:35;;;;;;;21.88;10.73;;;;;;;;;;5090886;28;20488;-54
2024/01/20 07:22:01;;;;;;;22.15;10.43;;;;;;;;;;5088259;28;20399;-53
2024/01/20 07:24:27;;;;;;;20.45;11.48;;;;;;;;;;5090051;28;20922;-51
2024/01/20 07:26:54;;;;;;;22.38;10.70;;;;;;;;;;5091137;28;20382;-54
2024/01/20 07:29:20;;;;;;;20.80;11.27;;;;;;;;;;5090429;28;20933;-53
2024/01/20 07:31:46;;;;;;;19.70;10.43;;;;;;;;;;5088748;28;20446;-49
2024/01/20 07:34:12;;;;;;;22.30;10.75;;;;;;;;;;5090137;28;20451;-50
2024/01/20 07:36:38;;;;;;;21.25;11.35;;;;;;;;;;5083836;28;20366;-49
2024/01/20 07:39:08;;;;;;;23.05;11.10;;;;;;;;;;5087961;28;20417;-50
2024/01/20 07:41:34;;;;;;;25.52;11.57;;;;;;;;;;5090331;28;20379;-49
2024/01/20 07:44:00;;;;;;;20.60;11.20;;;;;;;;;;5088952;28;20394;-49
2024/01/20 07:46:25;;;;;;;21.23;10.95;;;;;;;;;;5088711;28;20393;-54
2024/01/20 07:48:51;;;;;;;21.48;11.02;;;;;;;;;;5090528;28;20404;-54
2024/01/20 07:51:17;;;;;;;21.38;11.32;;;;;;;;;;5089737;28;20459;-54
2024/01/20 07:53:43;;;;;;;22.73;11.88;;;;;;;;;;5090083;28;20844;-52
2024/01/20 07:56:11;;;;;;;22.80;11.00;;;;;;;;;;5088771;28;20422;-52
2024/01/20 07:58:37;;;;;;;20.75;11.10;;;;;;;;;;5089924;28;20756;-54
2024/01/20 08:01:03;;;;;;;21.70;10.68;;;;;;;;;;5089974;28;20393;-49
2024/01/20 08:03:29;;;;;;;20.73;10.98;;;;;;;;;;5088102;28;20402;-51
2024/01/20 08:05:55;;;;;;;19.20;11.15;;;;;;;;;;5088186;28;20386;-50
2024/01/20 08:08:21;;;;;;;22.58;11.23;;;;;;;;;;5089594;28;20410;-53
2024/01/20 08:10:47;;;;;;;19.92;11.07;;;;;;;;;;5090177;28;20413;-53
2024/01/20 08:13:13;;;;;;;19.67;10.25;;;;;;;;;;5084155;28;20398;-50
2024/01/20 08:15:39;;;;;;;18.58;10.68;;;;;;;;;;5090664;28;20366;-49
2024/01/20 08:18:05;;;;;;;19.75;11.02;;;;;;;;;;5088614;28;20394;-50
2024/01/20 08:20:31;;;;;;;20.98;10.50;;;;;;;;;;5086053;28;20387;-51
2024/01/20 08:22:57;;;;;;;19.80;10.27;;;;;;;;;;5082019;28;20486;-51
2024/01/20 08:25:23;;;;;;;16.92;9.65;;;;;;;;;;5087947;28;20462;-51
2024/01/20 08:27:49;;;;;;;17.42;9.27;;;;;;;;;;5090022;28;20381;-54
2024/01/20 08:30:15;;;;;;;19.30;10.57;;;;;;;;;;5089015;28;20405;-53
2024/01/20 08:32:41;;;;;;;20.77;9.80;;;;;;;;;;5085265;28;20508;-53
2024/01/20 08:35:08;;;;;;;20.23;10.38;;;;;;;;;;5086001;28;20879;-52
2024/01/20 08:37:34;;;;;;;19.30;10.68;;;;;;;;;;5083262;28;20377;-53
2024/01/20 08:40:00;;;;;;;19.35;9.73;;;;;;;;;;5089638;28;20731;-52
2024/01/20 08:42:26;;;;;;;20.15;10.05;;;;;;;;;;5076659;28;20403;-53
2024/01/20 08:44:51;;;;;;;19.48;9.98;;;;;;;;;;5089428;28;20386;-52
2024/01/20 08:47:17;;;;;;;19.85;9.85;;;;;;;;;;5088685;28;20382;-50
2024/01/20 08:49:44;;;;;;;19.92;10.13;;;;;;;;;;5088421;28;20417;-49
2024/01/20 08:52:10;;;;;;;21.90;10.75;;;;;;;;;;5077321;28;20376;-49
2024/01/20 08:54:37;;;;;;;22.87;9.93;;;;;;;;;;5076994;28;20390;-50
2024/01/20 08:57:03;;;;;;;18.60;9.88;;;;;;;;;;5089053;28;20393;-50
2024/01/20 08:59:29;;;;;;;18.90;8.98;;;;;;;;;;5086037;28;20489;-51
2024/01/20 09:01:55;;;;;;;17.85;9.15;;;;;;;;;;5081850;28;20424;-50
2024/01/20 09:04:21;;;;;;;16.80;9.63;;;;;;;;;;5089092;28;20401;-50
2024/01/20 09:06:47;;;;;;;16.95;9.55;;;;;;;;;;5089209;28;20397;-53
2024/01/20 09:09:13;;;;;;;18.42;8.70;;;;;;;;;;5075496;28;20415;-52
2024/01/20 09:11:39;;;;;;;17.05;9.23;;;;;;;;;;5081453;28;20521;-54
2024/01/20 09:14:05;;;;;;;16.58;9.10;;;;;;;;;;5087970;28;20735;-52
2024/01/20 09:16:31;;;;;;;16.93;9.20;;;;;;;;;;5090493;28;20393;-52
2024/01/20 09:18:58;;;;;;;17.70;8.77;;;;;;;;;;5089637;28;20408;-52
2024/01/20 09:21:24;;;;;;;19.85;9.80;;;;;;;;;;5088290;28;20537;-53
2024/01/20 09:23:53;;;;;;;17.02;9.05;;;;;;;;;;5083617;28;20395;-52
2024/01/20 09:26:19;;;;;;;19.23;9.50;;;;;;;;;;5085932;28;20378;-51
2024/01/20 09:28:45;;;;;;;18.88;8.93;;;;;;;;;;5091874;28;20868;-50
2024/01/20 09:31:11;;;;;;;19.35;9.13;;;;;;;;;;5088971;28;20403;-51
2024/01/20 09:33:37;;;;;;;19.63;8.82;;;;;;;;;;5091712;28;20840;-54
2024/01/20 09:36:03;;;;;;;18.33;9.20;;;;;;;;;;5090745;28;20374;-52
2024/01/20 09:38:30;;;;;;;16.58;9.50;;;;;;;;;;5089605;28;20763;-51
2024/01/20 09:40:59;;;;;;;17.57;9.60;;;;;;;;;;5087588;28;20417;-51
2024/01/20 09:43:25;;;;;;;16.45;9.70;;;;;;;;;;5090287;28;20401;-50
2024/01/20 09:45:52;;;;;;;22.08;9.88;;;;;;;;;;5092554;28;20808;-53
2024/01/20 09:48:19;;;;;;;16.25;8.65;;;;;;;;;;5085647;28;20390;-51
2024/01/20 09:50:45;;;;;;;15.75;8.48;;;;;;;;;;5089302;28;20465;-52
2024/01/20 09:53:15;;;;;;;17.35;8.85;;;;;;;;;;5091679;28;20911;-54
2024/01/20 09:55:45;;;;;;;15.88;8.48;;;;;;;;;;5091949;28;20385;-53
2024/01/20 09:58:12;;;;;;;14.45;8.10;;;;;;;;;;5087599;28;20368;-54
2024/01/20 10:00:38;;;;;;;17.95;8.35;;;;;;;;;;5089833;28;20504;-52
2024/01/20 10:03:05;;;;;;;16.33;8.10;;;;;;;;;;5086209;28;20383;-50
2024/01/20 10:05:32;;;;;;;15.25;8.43;;;;;;;;;;5089254;28;20432;-54
2024/01/20 10:07:58;;;;;;;15.30;8.35;;;;;;;;;;5082509;28;20912;-51
2024/01/20 10:10:24;;;;;;;16.13;8.25;;;;;;;;;;5091360;28;20412;-50
2024/01/20 10:13:00;;;;;;;15.37;8.10;;;;;;;;;;5086779;28;20453;-52
2024/01/20 10:15:30;;;;;;;15.43;7.90;;;;;;;;;;5087055;28;20381;-57
2024/01/20 10:17:56;;;;;;;16.77;8.03;;;;;;;;;;5085557;28;20375;-57
2024/01/20 10:20:24;;;;;;;16.15;8.02;;;;;;;;;;5088144;28;20831;-53
2024/01/20 10:22:50;;;;;;;14.75;7.70;;;;;;;;;;5088252;28;20380;-58
2024/01/20 10:25:20;;;;;;;18.95;7.25;;;;;;;;;;5091509;28;20400;-56
2024/01/20 10:27:47;;;;;;;16.73;8.00;;;;;;;;;;5067620;28;20384;-55
2024/01/20 10:30:13;;;;;;;20.10;8.27;;;;;;;;;;5091160;28;20553;-55
2024/01/20 10:32:42;;;;;;;17.52;8.70;;;;;;;;;;5091103;28;20374;-55
2024/01/20 10:35:08;;;;;;;17.25;8.30;;;;;;;;;;5086996;28;20386;-52
2024/01/20 10:37:37;;;;;;;14.40;7.63;;;;;;;;;;5092024;28;20397;-54
2024/01/20 10:40:05;;;;;;;13.80;7.65;;;;;;;;;;5090051;28;20429;-55
2024/01/20 10:42:31;;;;;;;15.07;8.43;;;;;;;;;;5092007;28;20385;-52
2024/01/20 10:45:04;;;;;;;15.98;8.30;;;;;;;;;;5091214;28;20386;-55
2024/01/20 10:47:33;;;;;;;15.38;7.78;;;;;;;;;;5090559;28;20374;-54
2024/01/20 10:50:03;;;;;;;19.65;8.63;;;;;;;;;;5090644;28;20532;-52
2024/01/20 10:52:30;;;;;;;13.73;7.70;;;;;;;;;;5090526;28;20398;-54
2024/01/20 10:54:56;;;;;;;15.45;7.97;;;;;;;;;;5090585;28;20521;-55
2024/01/20 10:57:22;;;;;;;17.08;7.80;;;;;;;;;;5093436;28;20393;-55
2024/01/20 10:59:48;;;;;;;16.95;8.32;;;;;;;;;;5089222;28;20390;-55
2024/01/20 11:02:14;;;;;;;13.13;7.20;;;;;;;;;;5091774;28;20392;-55
2024/01/20 11:04:43;;;;;;;14.48;7.35;;;;;;;;;;5071565;28;20490;-53
2024/01/20 11:07:09;;;;;;;14.77;7.60;;;;;;;;;;5085666;28;21072;-55
2024/01/20 11:09:36;;;;;;;16.67;7.63;;;;;;;;;;5088454;28;20410;-56
2024/01/20 11:12:03;;;;;;;15.35;7.60;;;;;;;;;;5090409;28;20378;-54
2024/01/20 11:14:32;;;;;;;15.48;7.30;;;;;;;;;;5069338;28;20445;-56
2024/01/20 11:17:01;;;;;;;15.35;7.20;;;;;;;;;;5091676;28;20387;-53
2024/01/20 11:19:30;;;;;;;14.40;6.75;;;;;;;;;;5087820;28;20748;-54
2024/01/20 11:21:57;;;;;;;13.40;7.00;;;;;;;;;;5089620;28;20918;-54
2024/01/20 11:24:36;;;;;;;15.63;7.25;;;;;;;;;;5084165;28;20420;-52
2024/01/20 11:27:04;;;;;;;15.60;6.80;;;;;;;;;;5092999;28;20397;-51
2024/01/20 11:29:30;;;;;;;12.95;6.60;;;;;;;;;;5091769;28;20417;-51
2024/01/20 11:31:58;;;;;;;15.90;7.10;;;;;;;;;;5080958;28;20370;-52
2024/01/20 11:34:25;;;;;;;13.32;6.50;;;;;;;;;;5080106;28;20450;-54
2024/01/20 11:36:52;;;;;;;13.05;6.13;;;;;;;;;;5089376;28;20405;-58
2024/01/20 11:39:19;;;;;;;11.13;5.90;;;;;;;;;;5087673;28;20405;-58
2024/01/20 11:41:46;;;;;;;17.50;9.07;;;;;;;;;;5091391;28;21221;-57
2024/01/20 11:44:12;;;;;;;16.25;7.07;;;;;;;;;;5084238;28;20793;-58
2024/01/20 11:46:38;;;;;;;13.63;6.25;;;;;;;;;;5090410;28;20416;-58
2024/01/20 11:49:05;;;;;;;14.02;6.22;;;;;;;;;;5081073;28;20402;-59
2024/01/20 11:51:30;;;;;;;11.57;6.32;;;;;;;;;;5090563;28;20402;-57
2024/01/20 11:53:56;;;;;;;12.73;6.20;;;;;;;;;;5089899;28;20370;-57
2024/01/20 11:56:23;;;;;;;43.22;25.10;;;;;;;;;;5089745;28;20382;-58
2024/01/20 11:58:49;;;;;;;13.18;6.50;;;;;;;;;;5090295;28;20386;-58
2024/01/20 12:01:16;;;;;;;13.18;6.07;;;;;;;;;;5089954;28;20728;-58
2024/01/20 12:03:42;;;;;;;11.88;5.97;;;;;;;;;;5086027;28;20376;-58
2024/01/20 12:06:08;;;;;;;11.98;5.72;;;;;;;;;;5080906;28;20424;-59
2024/01/20 12:08:36;;;;;;;13.48;6.10;;;;;;;;;;5089736;28;20404;-58
2024/01/20 12:11:02;;;;;;;12.10;6.20;;;;;;;;;;5091762;28;20405;-58
2024/01/20 12:13:32;;;;;;;12.20;5.93;;;;;;;;;;5088522;28;20451;-58
2024/01/20 12:15:58;;;;;;;10.02;5.35;;;;;;;;;;5089854;28;20375;-58
2024/01/20 12:18:24;;;;;;;10.48;5.88;;;;;;;;;;5089795;28;20390;-58
2024/01/20 12:20:51;;;;;;;11.88;5.68;;;;;;;;;;5089019;28;20476;-57
2024/01/20 12:23:20;;;;;;;13.05;5.53;;;;;;;;;;5085432;28;20548;-57
2024/01/20 12:25:47;;;;;;;12.65;6.03;;;;;;;;;;5088721;28;20515;-58
2024/01/20 12:28:13;;;;;;;13.80;5.75;;;;;;;;;;5088823;28;20378;-59
2024/01/20 12:30:39;;;;;;;12.20;6.03;;;;;;;;;;5090361;28;20413;-58
2024/01/20 12:33:05;;;;;;;14.85;6.18;;;;;;;;;;5089454;28;20423;-58
2024/01/20 12:35:32;;;;;;;14.93;6.57;;;;;;;;;;5085987;28;21292;-51
2024/01/20 12:37:58;;;;;;;12.63;6.55;;;;;;;;;;5087246;28;20402;-50
2024/01/20 12:40:24;;;;;;;12.77;6.28;;;;;;;;;;5088594;28;20378;-51
2024/01/20 12:42:51;;;;;;;12.30;6.03;;;;;;;;;;5085006;28;20457;-53
2024/01/20 12:45:17;;;;;;;13.57;6.72;;;;;;;;;;5088745;28;20378;-59
2024/01/20 12:47:43;;;;;;;13.83;6.13;;;;;;;;;;5078514;28;20384;-58
2024/01/20 12:50:09;;;;;;;15.30;6.47;;;;;;;;;;5081143;28;20418;-56
2024/01/20 12:52:36;;;;;;;13.00;6.40;;;;;;;;;;5067944;28;20410;-57
2024/01/20 12:55:02;;;;;;;11.73;6.13;;;;;;;;;;5089338;28;20382;-61
2024/01/20 12:57:28;;;;;;;11.60;6.38;;;;;;;;;;5080232;28;20421;-58
2024/01/20 12:59:54;;;;;;;13.13;5.82;;;;;;;;;;5089003;28;20464;-58
2024/01/20 13:02:20;;;;;;;13.65;5.78;;;;;;;;;;5083263;28;20865;-58
2024/01/20 13:04:46;;;;;;;12.60;5.87;;;;;;;;;;5087636;28;21022;-58
2024/01/20 13:07:12;;;;;;;10.70;5.80;;;;;;;;;;5077730;28;20433;-59
2024/01/20 13:09:38;;;;;;;15.93;6.32;;;;;;;;;;5085795;28;20440;-58
2024/01/20 13:12:04;;;;;;;11.57;5.72;;;;;;;;;;5077798;28;20382;-55
2024/01/20 13:14:31;;;;;;;14.43;6.10;;;;;;;;;;5085843;28;20453;-57
2024/01/20 13:16:57;;;;;;;11.70;6.35;;;;;;;;;;5083644;28;20383;-59
2024/01/20 13:19:23;;;;;;;14.20;6.55;;;;;;;;;;5080013;28;20374;-57
2024/01/20 13:21:49;;;;;;;13.82;6.50;;;;;;;;;;5084218;28;20402;-58
2024/01/20 13:24:15;;;;;;;12.48;6.10;;;;;;;;;;5085677;28;20402;-58
2024/01/20 13:26:41;;;;;;;13.40;6.22;;;;;;;;;;5089208;28;20396;-58
2024/01/20 13:29:07;;;;;;;15.70;6.80;;;;;;;;;;5067265;28;20396;-58
2024/01/20 13:31:34;;;;;;;15.73;6.90;;;;;;;;;;5069893;28;20484;-57
2024/01/20 13:34:00;;;;;;;13.07;6.55;;;;;;;;;;5083233;28;20941;-59
2024/01/20 13:36:26;;;;;;;15.98;6.93;;;;;;;;;;5087135;28;20374;-58
2024/01/20 13:38:52;;;;;;;18.33;6.80;;;;;;;;;;5080606;28;20414;-58
2024/01/20 13:41:18;;;;;;;13.82;6.72;;;;;;;;;;5088063;28;21122;-58
2024/01/20 13:43:44;;;;;;;15.38;6.72;;;;;;;;;;5088146;28;20390;-58
2024/01/20 13:46:10;;;;;;;13.57;6.68;;;;;;;;;;5083505;28;20438;-54
2024/01/20 13:48:36;;;;;;;14.70;7.20;;;;;;;;;;5084392;28;20426;-55
2024/01/20 13:51:02;;;;;;;14.85;7.13;;;;;;;;;;5086818;28;20430;-53
2024/01/20 13:53:28;;;;;;;18.63;6.75;;;;;;;;;;5080601;28;20399;-55
2024/01/20 13:55:54;;;;;;;14.25;6.47;;;;;;;;;;5086401;28;20481;-52
2024/01/20 13:58:20;;;;;;;15.00;6.80;;;;;;;;;;5088329;28;20833;-55
2024/01/20 14:00:48;;;;;;;13.55;6.07;;;;;;;;;;5081338;28;20402;-54
2024/01/20 14:03:14;;;;;;;14.97;6.57;;;;;;;;;;5090852;28;20377;-52
2024/01/20 14:05:40;;;;;;;16.92;6.18;;;;;;;;;;5089529;28;20468;-52
2024/01/20 14:08:06;;;;;;;12.38;6.00;;;;;;;;;;5090794;28;20483;-54
2024/01/20 14:10:32;;;;;;;11.95;6.00;;;;;;;;;;5086885;28;20410;-52
2024/01/20 14:12:58;;;;;;;14.02;6.22;;;;;;;;;;5088563;28;20398;-51
2024/01/20 14:15:24;;;;;;;13.38;5.88;;;;;;;;;;5073633;28;20734;-53
2024/01/20 14:17:50;;;;;;;17.10;6.80;;;;;;;;;;5085566;28;20398;-54
2024/01/20 14:20:16;;;;;;;13.07;5.90;;;;;;;;;;5087718;28;20377;-53